Airport View

Enter AWOS ICAO identifier for current METAR.

ex. KFNL

KMLT 191853Z AUTO 03005KT 10SM OVC025 M08/M13 A2959 RMK AO2 SLP033 T10831128

19 Jan 2020 19:29

Frequency: 135.225

Phone: 207-723-8396

Other Area AWOS: K3B1 - KGNR - KHUL - KBGR

TAF KHUL 191742Z 1918/2018 02010KT 3/4SM -SN OVC015 FM192300 35008KT 5SM -SHSN OVC015 FM200700 34009KT P6SM OVC025